createdAt,value
2023-04-22T00:00:59.733Z,63.88
2023-04-22T00:01:59.758Z,64.18
2023-04-22T00:02:59.942Z,63.94
2023-04-22T00:04:00.132Z,63.03
2023-04-22T00:04:59.998Z,63.01
2023-04-22T00:06:00.084Z,63.55
2023-04-22T00:06:59.909Z,63.76
2023-04-22T00:07:59.944Z,64.12
2023-04-22T00:08:59.984Z,63.89
2023-04-22T00:10:00.038Z,62.79
2023-04-22T00:11:00.040Z,62.23
2023-04-22T00:12:00.066Z,61.76
2023-04-22T00:13:00.097Z,62.65
2023-04-22T00:14:00.141Z,62.87
2023-04-22T00:15:00.201Z,61.39
2023-04-22T00:16:00.355Z,63.92
2023-04-22T00:17:00.242Z,61.61
2023-04-22T00:18:00.315Z,61.13
2023-04-22T00:19:00.319Z,62.06
2023-04-22T00:20:00.361Z,60.34
2023-04-22T00:21:00.387Z,62.52
2023-04-22T00:22:00.399Z,60.40
2023-04-22T00:23:00.433Z,61.61
2023-04-22T00:24:00.468Z,60.37
2023-04-22T00:25:00.527Z,60.25
2023-04-22T00:26:00.545Z,60.05
2023-04-22T00:27:00.572Z,60.05
2023-04-22T00:28:00.589Z,61.13
2023-04-22T00:29:00.631Z,59.04
2023-04-22T00:30:00.665Z,60.02
2023-04-22T00:31:00.679Z,60.75
2023-04-22T00:32:00.706Z,60.97
2023-04-22T00:33:00.817Z,60.16
2023-04-22T00:34:00.793Z,59.57
2023-04-22T00:35:00.805Z,59.81
2023-04-22T00:36:00.832Z,60.09
2023-04-22T00:37:00.868Z,60.39
2023-04-22T00:38:00.889Z,60.62
2023-04-22T00:39:00.922Z,60.66
2023-04-22T00:40:00.956Z,59.47
2023-04-22T00:41:00.997Z,60.33
2023-04-22T00:42:01.028Z,59.94
2023-04-22T00:43:01.061Z,59.22
2023-04-22T00:44:01.104Z,58.77
2023-04-22T00:45:01.223Z,58.06
2023-04-22T00:46:01.171Z,59.23
2023-04-22T00:47:01.275Z,57.96
2023-04-22T00:48:01.250Z,58.89
2023-04-22T00:49:01.285Z,58.89
2023-04-22T00:50:01.304Z,58.85
2023-04-22T00:51:01.349Z,59.13
2023-04-22T00:52:01.375Z,57.67
2023-04-22T00:53:01.450Z,59.72
2023-04-22T00:54:01.505Z,58.68
2023-04-22T00:55:01.519Z,57.04
2023-04-22T00:56:01.561Z,56.63
2023-04-22T00:57:01.601Z,56.97
2023-04-22T00:58:01.626Z,55.61
2023-04-22T00:59:01.670Z,55.87
2023-04-22T01:00:01.697Z,57.35
2023-04-22T01:01:01.781Z,56.40
2023-04-22T01:02:01.817Z,55.35
2023-04-22T01:03:02.013Z,56.79
2023-04-22T01:04:02.018Z,55.23
2023-04-22T01:05:01.884Z,54.08
2023-04-22T01:06:01.932Z,55.00
2023-04-22T01:07:01.941Z,55.17
2023-04-22T01:08:01.968Z,54.51
2023-04-22T01:09:02.026Z,55.18
2023-04-22T01:10:02.070Z,53.50
2023-04-22T01:11:02.097Z,55.42
2023-04-22T01:12:02.118Z,53.17
2023-04-22T01:13:02.177Z,54.23
2023-04-22T01:14:02.190Z,52.03
2023-04-22T01:15:04.491Z,52.82
2023-04-22T01:16:02.216Z,52.61
2023-04-22T01:17:02.248Z,51.89
2023-04-22T01:18:02.198Z,52.89
2023-04-22T01:19:02.150Z,53.53
2023-04-22T01:20:02.126Z,51.98
2023-04-22T01:21:02.169Z,52.32
2023-04-22T01:22:02.119Z,53.25
2023-04-22T01:23:02.118Z,52.07
2023-04-22T01:24:02.090Z,49.65
2023-04-22T01:25:02.088Z,51.32
2023-04-22T01:26:02.070Z,51.15
2023-04-22T01:27:02.083Z,51.74
2023-04-22T01:28:01.998Z,49.77
2023-04-22T01:29:01.980Z,49.87
2023-04-22T01:30:01.969Z,50.31
2023-04-22T01:31:01.947Z,50.56
2023-04-22T01:32:01.933Z,50.69
2023-04-22T01:33:02.024Z,51.65
2023-04-22T01:34:01.912Z,51.10
2023-04-22T01:35:01.888Z,49.95
2023-04-22T01:36:01.887Z,50.50
2023-04-22T01:37:01.847Z,50.74
2023-04-22T01:38:01.854Z,50.90
2023-04-22T01:39:01.876Z,49.75
2023-04-22T01:40:01.944Z,49.65
2023-04-22T01:41:01.949Z,49.97
2023-04-22T01:42:01.989Z,49.51
2023-04-22T01:43:02.031Z,47.86
2023-04-22T01:44:02.045Z,48.05
2023-04-22T01:45:02.086Z,48.98
2023-04-22T01:46:02.216Z,50.35
2023-04-22T01:47:02.156Z,47.57
2023-04-22T01:48:02.237Z,47.03
2023-04-22T01:49:02.233Z,46.54
2023-04-22T01:50:02.264Z,46.75
2023-04-22T01:51:02.311Z,46.76
2023-04-22T01:52:02.340Z,46.84
2023-04-22T01:53:02.384Z,46.36
2023-04-22T01:54:02.416Z,46.40
2023-04-22T01:55:02.459Z,45.57
2023-04-22T01:56:02.419Z,45.63
2023-04-22T01:57:02.406Z,45.75
2023-04-22T01:58:02.393Z,45.77
2023-04-22T01:59:02.385Z,45.92
2023-04-22T02:00:02.375Z,47.11
2023-04-22T02:01:02.372Z,46.64
2023-04-22T02:02:02.336Z,45.25
2023-04-22T02:03:02.373Z,46.47
2023-04-22T02:04:02.275Z,46.35
2023-04-22T02:05:02.312Z,46.05
2023-04-22T02:06:02.336Z,45.50
2023-04-22T02:07:02.367Z,45.35
2023-04-22T02:08:02.400Z,45.32
2023-04-22T02:09:02.451Z,45.41
2023-04-22T02:10:02.509Z,44.94
2023-04-22T02:11:02.542Z,44.54
2023-04-22T02:12:02.578Z,44.01
2023-04-22T02:13:02.642Z,44.48
2023-04-22T02:14:02.649Z,43.40
2023-04-22T02:15:02.681Z,44.42
2023-04-22T02:16:02.779Z,42.98
2023-04-22T02:17:02.756Z,42.52
2023-04-22T02:18:02.811Z,41.78
2023-04-22T02:19:02.858Z,39.38
2023-04-22T02:20:02.915Z,39.20
2023-04-22T02:21:02.950Z,39.44
2023-04-22T02:22:02.983Z,39.39
2023-04-22T02:23:03.026Z,39.56
2023-04-22T02:24:03.074Z,39.00
2023-04-22T02:25:03.114Z,39.37
2023-04-22T02:26:03.144Z,38.73
2023-04-22T02:27:03.186Z,40.69
2023-04-22T02:28:03.243Z,39.82
2023-04-22T02:29:03.279Z,39.36
2023-04-22T02:30:03.330Z,40.69
2023-04-22T02:31:03.388Z,39.54
2023-04-22T02:32:03.421Z,40.76
2023-04-22T02:33:03.507Z,40.23
2023-04-22T02:34:03.481Z,38.78
2023-04-22T02:35:03.525Z,37.34
2023-04-22T02:36:03.577Z,38.08
2023-04-22T02:37:03.626Z,39.14
2023-04-22T02:38:03.657Z,38.30
2023-04-22T02:39:03.701Z,38.67
2023-04-22T02:40:03.827Z,38.55
2023-04-22T02:41:03.786Z,37.61
2023-04-22T02:42:03.765Z,37.67
2023-04-22T02:43:03.737Z,37.82
2023-04-22T02:44:03.719Z,38.27
2023-04-22T02:45:03.708Z,37.73
2023-04-22T02:46:03.727Z,38.45
2023-04-22T02:47:03.776Z,38.07
2023-04-22T02:48:03.738Z,36.19
2023-04-22T02:49:03.628Z,35.93
2023-04-22T02:50:03.594Z,33.86
2023-04-22T02:51:03.651Z,34.70
2023-04-22T02:52:03.681Z,34.49
2023-04-22T02:53:03.703Z,34.76
2023-04-22T02:54:03.740Z,34.82
2023-04-22T02:55:03.794Z,33.77
2023-04-22T02:56:03.825Z,34.07
2023-04-22T02:57:03.867Z,34.62
2023-04-22T02:58:03.919Z,34.46
2023-04-22T02:59:03.963Z,34.57
2023-04-22T03:00:04.027Z,33.89
2023-04-22T03:01:04.130Z,35.02
2023-04-22T03:02:06.684Z,34.69
2023-04-22T03:03:04.124Z,35.51
2023-04-22T03:04:04.208Z,34.56
2023-04-22T03:05:04.053Z,34.64
2023-04-22T03:06:04.040Z,34.69
2023-04-22T03:07:04.022Z,34.81
2023-04-22T03:08:04.019Z,33.64
2023-04-22T03:09:04.010Z,34.47
2023-04-22T03:10:03.994Z,33.33
2023-04-22T03:11:03.998Z,33.90
2023-04-22T03:12:03.954Z,34.00
2023-04-22T03:13:03.945Z,34.29
2023-04-22T03:14:03.916Z,32.87
2023-04-22T03:15:03.919Z,32.67
2023-04-22T03:16:03.997Z,32.05
2023-04-22T03:17:04.041Z,32.72
2023-04-22T03:18:04.128Z,33.76
2023-04-22T03:19:04.089Z,33.63
2023-04-22T03:20:04.138Z,32.94
2023-04-22T03:21:04.213Z,33.35
2023-04-22T03:22:04.238Z,33.01
2023-04-22T03:23:04.281Z,32.05
2023-04-22T03:24:04.315Z,30.59
2023-04-22T03:25:04.348Z,30.89
2023-04-22T03:26:04.418Z,31.24
2023-04-22T03:27:04.441Z,32.16
2023-04-22T03:28:04.482Z,31.74
2023-04-22T03:29:04.531Z,32.22
2023-04-22T03:30:04.568Z,31.00
2023-04-22T03:31:04.602Z,32.01
2023-04-22T03:32:04.664Z,29.98
2023-04-22T03:33:04.804Z,30.04
2023-04-22T03:34:04.723Z,30.99
2023-04-22T03:35:04.765Z,30.29
2023-04-22T03:36:04.812Z,29.00
2023-04-22T03:37:04.858Z,28.26
2023-04-22T03:38:04.910Z,27.51
2023-04-22T03:39:04.942Z,27.67
2023-04-22T03:40:04.988Z,27.98
2023-04-22T03:41:05.047Z,26.68
2023-04-22T03:42:05.081Z,27.24
2023-04-22T03:43:05.121Z,27.35
2023-04-22T03:44:05.163Z,26.66
2023-04-22T03:45:05.198Z,27.81
2023-04-22T03:46:05.368Z,26.66
2023-04-22T03:47:05.275Z,27.09
2023-04-22T03:48:05.365Z,27.16
2023-04-22T03:49:05.363Z,27.70
2023-04-22T03:50:05.430Z,27.80
2023-04-22T03:51:05.485Z,27.76
2023-04-22T03:52:05.522Z,26.50
2023-04-22T03:53:05.532Z,26.25
2023-04-22T03:54:05.575Z,26.03
2023-04-22T03:55:05.615Z,26.49
2023-04-22T03:56:05.666Z,26.56
2023-04-22T03:57:05.697Z,27.37
2023-04-22T03:58:05.736Z,27.43
2023-04-22T03:59:05.795Z,26.68
2023-04-22T04:00:05.831Z,26.44
2023-04-22T04:01:05.898Z,27.11
2023-04-22T04:02:06.065Z,27.01
2023-04-22T04:03:06.315Z,26.88
2023-04-22T04:04:06.236Z,27.33
2023-04-22T04:05:06.124Z,27.48
2023-04-22T04:06:06.287Z,25.63
2023-04-22T04:07:06.168Z,25.26
2023-04-22T04:08:06.210Z,24.78
2023-04-22T04:09:06.255Z,25.59
2023-04-22T04:10:06.307Z,25.55
2023-04-22T04:11:06.364Z,25.97
2023-04-22T04:12:06.385Z,25.68
2023-04-22T04:13:06.435Z,24.97
2023-04-22T04:14:06.494Z,24.36
2023-04-22T04:15:06.551Z,24.57
2023-04-22T04:16:06.646Z,24.96
2023-04-22T04:17:06.640Z,24.97
2023-04-22T04:18:06.748Z,25.19
2023-04-22T04:19:06.764Z,25.02
2023-04-22T04:20:06.814Z,25.53
2023-04-22T04:21:06.876Z,25.37
2023-04-22T04:22:06.900Z,25.14
2023-04-22T04:23:06.948Z,24.65
2023-04-22T04:24:07.012Z,24.22
2023-04-22T04:25:07.053Z,24.35
2023-04-22T04:26:07.111Z,24.46
2023-04-22T04:27:07.162Z,24.74
2023-04-22T04:28:07.221Z,23.99
2023-04-22T04:29:07.256Z,23.83
2023-04-22T04:30:07.313Z,24.02
2023-04-22T04:31:07.431Z,23.27
2023-04-22T04:32:07.397Z,24.19
2023-04-22T04:33:07.670Z,24.00
2023-04-22T04:34:07.523Z,22.74
2023-04-22T04:35:07.560Z,22.25
2023-04-22T04:36:07.603Z,22.31
2023-04-22T04:37:07.635Z,21.94
2023-04-22T04:38:07.686Z,22.15
2023-04-22T04:39:07.724Z,22.85
2023-04-22T04:40:07.767Z,21.25
2023-04-22T04:41:07.904Z,22.16
2023-04-22T04:42:07.880Z,22.09
2023-04-22T04:43:07.903Z,22.15
2023-04-22T04:44:07.934Z,22.05
2023-04-22T04:45:07.973Z,22.58
2023-04-22T04:46:08.130Z,22.59
2023-04-22T04:47:08.063Z,22.11
2023-04-22T04:48:08.170Z,21.54
2023-04-22T04:49:08.118Z,22.73
2023-04-22T04:50:08.166Z,22.58
2023-04-22T04:51:08.196Z,22.57
2023-04-22T04:52:08.239Z,21.73
2023-04-22T04:53:08.282Z,21.44
2023-04-22T04:54:08.328Z,21.98
2023-04-22T04:55:08.337Z,22.02
2023-04-22T04:56:08.373Z,21.39
2023-04-22T04:57:08.329Z,21.68
2023-04-22T04:58:08.334Z,21.03
2023-04-22T04:59:08.360Z,21.12
2023-04-22T05:00:08.328Z,21.04
2023-04-22T05:01:08.345Z,19.96
2023-04-22T05:02:08.568Z,19.80
2023-04-22T05:03:08.692Z,19.34
2023-04-22T05:04:08.787Z,18.75
2023-04-22T05:05:08.513Z,19.10
2023-04-22T05:06:08.486Z,19.14
2023-04-22T05:07:08.473Z,19.50
2023-04-22T05:08:08.489Z,19.68
2023-04-22T05:09:08.490Z,19.74
2023-04-22T05:10:08.521Z,19.70
2023-04-22T05:11:08.569Z,19.99
2023-04-22T05:12:08.606Z,19.86
2023-04-22T05:13:08.633Z,20.14
2023-04-22T05:14:08.676Z,20.06
2023-04-22T05:15:08.732Z,20.34
2023-04-22T05:16:08.795Z,20.14
2023-04-22T05:17:08.809Z,19.56
2023-04-22T05:18:08.917Z,19.74
2023-04-22T05:19:08.955Z,19.85
2023-04-22T05:20:09.032Z,19.70
2023-04-22T05:21:09.040Z,20.01
2023-04-22T05:22:09.069Z,19.19
2023-04-22T05:23:09.057Z,19.20
2023-04-22T05:24:09.032Z,19.24
2023-04-22T05:25:09.004Z,18.14
2023-04-22T05:26:08.996Z,18.75
2023-04-22T05:27:08.975Z,18.25
2023-04-22T05:28:08.968Z,18.42
2023-04-22T05:29:09.016Z,18.78
2023-04-22T05:30:08.949Z,18.62
2023-04-22T05:31:08.871Z,19.06
2023-04-22T05:32:08.989Z,18.81
2023-04-22T05:33:09.038Z,18.72
2023-04-22T05:34:09.014Z,18.47
2023-04-22T05:35:09.062Z,18.28
2023-04-22T05:36:09.125Z,18.23
2023-04-22T05:37:09.145Z,18.28
2023-04-22T05:38:09.196Z,18.48
2023-04-22T05:39:09.221Z,18.56
2023-04-22T05:40:09.234Z,18.22
2023-04-22T05:41:09.268Z,18.54
2023-04-22T05:42:09.289Z,18.44
2023-04-22T05:43:09.273Z,18.02
2023-04-22T05:44:09.296Z,18.04
2023-04-22T05:45:09.293Z,18.22
2023-04-22T05:46:09.334Z,17.73
2023-04-22T05:47:09.315Z,17.88
2023-04-22T05:48:09.343Z,17.76
2023-04-22T05:49:09.329Z,17.52
2023-04-22T05:50:09.369Z,17.91
2023-04-22T05:51:09.379Z,17.28
2023-04-22T05:52:09.399Z,17.60
2023-04-22T05:53:09.419Z,17.72
2023-04-22T05:54:09.432Z,17.88
2023-04-22T05:55:09.448Z,17.61
2023-04-22T05:56:09.424Z,17.82
2023-04-22T05:57:09.422Z,17.97
2023-04-22T05:58:09.457Z,17.76
2023-04-22T05:59:09.465Z,17.89
2023-04-22T06:00:09.511Z,17.88
2023-04-22T06:01:09.523Z,17.77
2023-04-22T06:02:10.278Z,17.87
2023-04-22T06:03:09.814Z,17.66
2023-04-22T06:04:09.803Z,17.59
2023-04-22T06:05:09.952Z,17.53
2023-04-22T06:06:09.648Z,17.15
2023-04-22T06:07:09.675Z,17.28
2023-04-22T06:08:09.727Z,17.45
2023-04-22T06:09:09.751Z,17.52
2023-04-22T06:10:09.795Z,17.24
2023-04-22T06:11:09.803Z,17.51
2023-04-22T06:12:09.833Z,17.45
2023-04-22T06:13:09.866Z,17.27
2023-04-22T06:14:09.872Z,17.05
2023-04-22T06:15:09.924Z,17.28
2023-04-22T06:16:09.989Z,17.46
2023-04-22T06:17:10.022Z,17.46
2023-04-22T06:18:10.048Z,16.66
2023-04-22T06:19:10.445Z,16.89
2023-04-22T06:20:10.131Z,16.82
2023-04-22T06:21:10.142Z,16.99
2023-04-22T06:22:10.171Z,16.70
2023-04-22T06:23:10.225Z,16.92
2023-04-22T06:24:10.232Z,16.78
2023-04-22T06:25:10.261Z,16.40
2023-04-22T06:26:10.289Z,16.17
2023-04-22T06:27:10.311Z,16.70
2023-04-22T06:28:10.296Z,16.70
2023-04-22T06:29:10.304Z,16.01
2023-04-22T06:30:10.338Z,16.27
2023-04-22T06:31:10.370Z,15.85
2023-04-22T06:32:10.359Z,16.25
2023-04-22T06:33:10.405Z,16.06
2023-04-22T06:34:10.407Z,15.79
2023-04-22T06:35:10.450Z,15.85
2023-04-22T06:36:10.487Z,15.86
2023-04-22T06:37:10.514Z,16.09
2023-04-22T06:38:10.552Z,15.86
2023-04-22T06:39:10.615Z,15.85
2023-04-22T06:40:10.655Z,15.83
2023-04-22T06:41:10.693Z,15.82
2023-04-22T06:42:10.732Z,15.62
2023-04-22T06:43:10.770Z,15.39
2023-04-22T06:44:10.803Z,15.71
2023-04-22T06:45:10.854Z,15.09
2023-04-22T06:46:10.952Z,15.39
2023-04-22T06:47:10.949Z,15.36
2023-04-22T06:48:10.990Z,15.11
2023-04-22T06:49:11.037Z,14.88
2023-04-22T06:50:11.067Z,15.26
2023-04-22T06:51:11.086Z,15.08
2023-04-22T06:52:11.119Z,15.12
2023-04-22T06:53:11.157Z,14.62
2023-04-22T06:54:11.181Z,14.63
2023-04-22T06:55:11.216Z,14.54
2023-04-22T06:56:11.220Z,14.56
2023-04-22T06:57:11.161Z,14.59
2023-04-22T06:58:11.128Z,14.49
2023-04-22T06:59:11.129Z,14.62
2023-04-22T07:00:11.109Z,14.60
2023-04-22T07:01:11.071Z,14.77
2023-04-22T07:02:11.126Z,14.58
2023-04-22T07:03:11.144Z,14.55
2023-04-22T07:04:11.015Z,13.92
2023-04-22T07:05:10.968Z,13.95
2023-04-22T07:06:10.971Z,13.67
2023-04-22T07:07:11.006Z,13.88
2023-04-22T07:08:11.014Z,13.60
2023-04-22T07:09:11.042Z,13.71
2023-04-22T07:10:11.078Z,13.48
2023-04-22T07:11:12.526Z,13.50
2023-04-22T07:12:11.119Z,13.45
2023-04-22T07:13:11.047Z,13.53
2023-04-22T07:14:11.021Z,13.56
2023-04-22T07:15:11.008Z,13.59
2023-04-22T07:16:11.032Z,13.62
2023-04-22T07:17:10.986Z,13.65
2023-04-22T07:18:10.968Z,13.59
2023-04-22T07:19:10.924Z,13.18
2023-04-22T07:20:10.895Z,13.18
2023-04-22T07:21:10.889Z,13.24
2023-04-22T07:22:10.878Z,13.18
2023-04-22T07:23:10.833Z,13.17
2023-04-22T07:24:10.800Z,13.15
2023-04-22T07:25:10.790Z,12.96
2023-04-22T07:26:10.794Z,12.77
2023-04-22T07:27:10.807Z,12.97
2023-04-22T07:28:10.853Z,12.77
2023-04-22T07:29:10.837Z,13.14
2023-04-22T07:30:10.876Z,12.73
2023-04-22T07:31:10.882Z,12.54
2023-04-22T07:32:10.955Z,12.21
2023-04-22T07:33:10.916Z,12.67
2023-04-22T07:34:10.943Z,12.41
2023-04-22T07:35:10.967Z,11.96
2023-04-22T07:36:10.965Z,12.25
2023-04-22T07:37:10.988Z,12.31
2023-04-22T07:38:12.721Z,11.92
2023-04-22T07:39:10.982Z,12.30
2023-04-22T07:40:10.948Z,12.08
2023-04-22T07:41:10.922Z,12.10
2023-04-22T07:42:10.905Z,12.08
2023-04-22T07:43:10.896Z,12.29
2023-04-22T07:44:10.881Z,12.16
2023-04-22T07:45:10.849Z,12.07
2023-04-22T07:46:10.851Z,12.23
2023-04-22T07:47:10.827Z,12.23
2023-04-22T07:48:10.789Z,11.87
2023-04-22T07:49:10.766Z,11.92
2023-04-22T07:50:10.751Z,12.09
2023-04-22T07:51:10.735Z,11.66
2023-04-22T07:52:10.713Z,11.78
2023-04-22T07:53:10.695Z,11.80
2023-04-22T07:54:10.641Z,11.71
2023-04-22T07:55:10.630Z,11.52
2023-04-22T07:56:10.591Z,11.57
2023-04-22T07:57:10.590Z,11.54
2023-04-22T07:58:10.551Z,11.48
2023-04-22T07:59:10.537Z,11.61
2023-04-22T08:00:10.519Z,11.55
2023-04-22T08:01:10.556Z,11.49
2023-04-22T08:02:10.522Z,11.61
2023-04-22T08:03:10.592Z,11.44
2023-04-22T08:04:10.584Z,11.31
2023-04-22T08:05:10.441Z,11.22
2023-04-22T08:06:10.370Z,11.22
2023-04-22T08:07:29.753Z,11.19
2023-04-22T08:08:11.325Z,11.22
2023-04-22T08:09:10.272Z,11.24
2023-04-22T08:10:10.274Z,11.29
2023-04-22T08:11:10.243Z,11.30
2023-04-22T08:12:10.202Z,11.22
2023-04-22T08:13:10.180Z,11.31
2023-04-22T08:14:10.140Z,11.34
2023-04-22T08:15:10.122Z,11.40
2023-04-22T08:16:10.153Z,11.15
2023-04-22T08:17:10.083Z,11.39
2023-04-22T08:18:10.092Z,11.28
2023-04-22T08:19:10.017Z,11.21
2023-04-22T08:20:10.010Z,11.16
2023-04-22T08:21:10.027Z,11.02
2023-04-22T08:22:09.973Z,10.96
2023-04-22T08:23:09.969Z,11.05
2023-04-22T08:24:09.992Z,11.19
2023-04-22T08:25:09.936Z,10.94
2023-04-22T08:26:09.952Z,10.92
2023-04-22T08:27:09.850Z,10.71
2023-04-22T08:28:09.816Z,10.81
2023-04-22T08:29:09.784Z,10.54
2023-04-22T08:30:09.788Z,10.49
2023-04-22T08:31:09.780Z,10.50
2023-04-22T08:32:09.738Z,10.70
2023-04-22T08:33:09.705Z,10.54
2023-04-22T08:34:09.700Z,10.61
2023-04-22T08:35:09.685Z,10.43
2023-04-22T08:36:09.668Z,10.42
2023-04-22T08:37:09.666Z,10.16
2023-04-22T08:38:09.633Z,10.07
2023-04-22T08:39:09.737Z,10.15
2023-04-22T08:40:09.768Z,10.21
2023-04-22T08:41:09.869Z,10.24
2023-04-22T08:42:09.951Z,10.25
2023-04-22T08:43:10.073Z,10.34
2023-04-22T08:44:10.139Z,10.32
2023-04-22T08:45:10.194Z,10.22
2023-04-22T08:46:10.163Z,10.23
2023-04-22T08:47:10.171Z,10.16
2023-04-22T08:48:10.042Z,10.27
2023-04-22T08:49:09.986Z,9.88
2023-04-22T08:50:09.975Z,10.11
2023-04-22T08:51:09.923Z,10.30
2023-04-22T08:52:09.943Z,10.17
2023-04-22T08:53:09.858Z,10.15
2023-04-22T08:54:09.826Z,10.22
2023-04-22T08:55:09.795Z,10.20
2023-04-22T08:56:09.774Z,10.01
2023-04-22T08:57:09.768Z,10.19
2023-04-22T08:58:09.727Z,10.08
2023-04-22T08:59:09.692Z,9.85
2023-04-22T09:00:09.693Z,10.09
2023-04-22T09:01:09.653Z,10.24
2023-04-22T09:02:09.662Z,10.01
2023-04-22T09:03:09.662Z,9.73
2023-04-22T09:04:09.621Z,9.72
2023-04-22T09:05:09.536Z,9.81
2023-04-22T09:06:09.503Z,9.77
2023-04-22T09:07:09.501Z,9.77
2023-04-22T09:08:09.448Z,9.81
2023-04-22T09:09:09.433Z,9.96
2023-04-22T09:10:09.418Z,9.94
2023-04-22T09:11:09.413Z,9.90
2023-04-22T09:12:09.404Z,9.65
2023-04-22T09:13:09.359Z,9.68
2023-04-22T09:14:09.320Z,9.56
2023-04-22T09:15:09.279Z,9.50
2023-04-22T09:16:09.289Z,9.35
2023-04-22T09:17:09.230Z,9.54
2023-04-22T09:18:09.186Z,9.30
2023-04-22T09:19:09.174Z,9.30
2023-04-22T09:20:09.213Z,8.96
2023-04-22T09:21:09.226Z,9.16
2023-04-22T09:22:09.200Z,9.45
2023-04-22T09:23:09.212Z,9.27
2023-04-22T09:24:09.234Z,9.29
2023-04-22T09:25:09.206Z,9.36
2023-04-22T09:26:09.192Z,9.28
2023-04-22T09:27:09.155Z,9.22
2023-04-22T09:28:09.168Z,9.06
2023-04-22T09:29:09.198Z,9.34
2023-04-22T09:30:09.199Z,9.12
2023-04-22T09:31:09.238Z,8.86
2023-04-22T09:32:09.299Z,9.13
2023-04-22T09:33:09.238Z,8.79
2023-04-22T09:34:09.231Z,8.94
2023-04-22T09:35:09.261Z,9.15
2023-04-22T09:36:09.272Z,8.80
2023-04-22T09:37:09.279Z,8.92
2023-04-22T09:38:09.296Z,9.03
2023-04-22T09:39:09.310Z,9.29
2023-04-22T09:40:09.363Z,9.05
2023-04-22T09:41:09.370Z,8.90
2023-04-22T09:42:09.399Z,8.49
2023-04-22T09:43:09.524Z,8.58
2023-04-22T09:44:09.439Z,8.81
2023-04-22T09:45:09.466Z,8.77
2023-04-22T09:46:09.487Z,8.71
2023-04-22T09:47:09.496Z,8.72
2023-04-22T09:48:09.545Z,8.95
2023-04-22T09:49:09.554Z,8.69
2023-04-22T09:50:09.584Z,8.61
2023-04-22T09:51:09.624Z,8.71
2023-04-22T09:52:09.686Z,8.66
2023-04-22T09:53:09.714Z,8.54
2023-04-22T09:54:09.735Z,8.83
2023-04-22T09:55:09.769Z,8.74
2023-04-22T09:56:09.805Z,8.67
2023-04-22T09:57:09.837Z,8.64
2023-04-22T09:58:09.887Z,8.71
2023-04-22T09:59:09.915Z,8.89
2023-04-22T10:00:09.986Z,8.57
2023-04-22T10:01:10.028Z,8.76
2023-04-22T10:02:10.030Z,8.42
2023-04-22T10:03:11.232Z,8.43
2023-04-22T10:04:10.161Z,8.28
2023-04-22T10:05:10.158Z,8.41
2023-04-22T10:06:10.194Z,8.56
2023-04-22T10:07:10.237Z,8.31
2023-04-22T10:08:10.313Z,8.21
2023-04-22T10:09:10.317Z,8.19
2023-04-22T10:10:10.359Z,7.96
2023-04-22T10:11:10.375Z,8.03
2023-04-22T10:12:10.406Z,8.25
2023-04-22T10:13:10.453Z,8.17
2023-04-22T10:14:10.497Z,8.33
2023-04-22T10:15:10.522Z,8.06
2023-04-22T10:16:10.563Z,8.31
2023-04-22T10:17:10.590Z,8.28
2023-04-22T10:18:10.598Z,8.25
2023-04-22T10:19:10.625Z,8.22
2023-04-22T10:20:10.678Z,7.96
2023-04-22T10:21:10.693Z,8.10
2023-04-22T10:22:10.721Z,7.97
2023-04-22T10:23:10.758Z,8.10
2023-04-22T10:24:10.793Z,8.06
2023-04-22T10:25:10.865Z,7.98
2023-04-22T10:26:10.885Z,8.12
2023-04-22T10:27:10.931Z,8.15
2023-04-22T10:28:10.934Z,7.95
2023-04-22T10:29:11.091Z,8.18
2023-04-22T10:30:10.984Z,7.95
2023-04-22T10:31:11.100Z,8.10
2023-04-22T10:32:11.204Z,7.97
2023-04-22T10:33:11.082Z,7.96
2023-04-22T10:34:11.131Z,7.94
2023-04-22T10:35:11.165Z,7.75
2023-04-22T10:36:11.316Z,7.82
2023-04-22T10:37:11.639Z,7.78
2023-04-22T10:38:11.197Z,7.85
2023-04-22T10:39:11.324Z,7.54
2023-04-22T10:40:11.258Z,7.75
2023-04-22T10:41:11.293Z,7.68
2023-04-22T10:42:11.326Z,7.69
2023-04-22T10:43:11.347Z,7.86
2023-04-22T10:44:11.368Z,7.79
2023-04-22T10:45:11.400Z,7.62
2023-04-22T10:46:11.465Z,7.61
2023-04-22T10:47:11.469Z,7.86
2023-04-22T10:48:11.481Z,7.60
2023-04-22T10:49:11.512Z,7.76
2023-04-22T10:50:11.550Z,7.73
2023-04-22T10:51:11.560Z,7.77
2023-04-22T10:52:11.586Z,7.72
2023-04-22T10:53:11.719Z,7.68
2023-04-22T10:54:11.638Z,7.69
2023-04-22T10:55:11.672Z,7.55
2023-04-22T10:56:11.693Z,7.69
2023-04-22T10:57:11.728Z,7.56
2023-04-22T10:58:11.734Z,7.57
2023-04-22T10:59:11.767Z,7.48
2023-04-22T11:00:11.788Z,7.51
2023-04-22T11:01:11.896Z,7.49
2023-04-22T11:02:11.986Z,7.47
2023-04-22T11:03:12.014Z,7.66
2023-04-22T11:04:12.012Z,7.73
2023-04-22T11:05:11.925Z,7.55
2023-04-22T11:06:11.985Z,7.59
2023-04-22T11:07:11.991Z,7.47
2023-04-22T11:08:11.997Z,7.58
2023-04-22T11:09:12.041Z,7.41
2023-04-22T11:10:12.035Z,7.37
2023-04-22T11:11:12.070Z,7.46
2023-04-22T11:12:12.087Z,7.28
2023-04-22T11:13:12.108Z,7.23
2023-04-22T11:14:12.145Z,7.36
2023-04-22T11:15:12.166Z,7.38
2023-04-22T11:16:12.260Z,7.31
2023-04-22T11:17:12.213Z,7.38
2023-04-22T11:18:12.218Z,7.35
2023-04-22T11:19:12.259Z,7.23
2023-04-22T11:20:12.278Z,7.24
2023-04-22T11:21:12.297Z,7.29
2023-04-22T11:22:12.327Z,7.24
2023-04-22T11:23:12.393Z,7.20
2023-04-22T11:24:12.405Z,7.21
2023-04-22T11:25:12.448Z,7.28
2023-04-22T11:26:12.502Z,7.19
2023-04-22T11:27:12.537Z,7.48
2023-04-22T11:28:12.595Z,7.22
2023-04-22T11:29:12.619Z,7.06
2023-04-22T11:30:12.656Z,7.31
2023-04-22T11:31:12.714Z,7.27
2023-04-22T11:32:12.698Z,7.22
2023-04-22T11:33:12.750Z,7.30
2023-04-22T11:34:12.766Z,7.19
2023-04-22T11:35:12.800Z,7.24
2023-04-22T11:36:12.856Z,7.12
2023-04-22T11:37:12.885Z,7.08
2023-04-22T11:38:12.935Z,7.07
2023-04-22T11:39:12.961Z,7.12
2023-04-22T11:40:21.358Z,7.09
2023-04-22T11:41:13.972Z,7.10
2023-04-22T11:42:12.942Z,7.12
2023-04-22T11:43:12.911Z,7.12
2023-04-22T11:44:12.878Z,7.17
2023-04-22T11:45:12.832Z,7.26
2023-04-22T11:46:12.876Z,7.13
2023-04-22T11:47:12.783Z,7.20
2023-04-22T11:48:12.752Z,7.10
2023-04-22T11:49:12.721Z,7.05
2023-04-22T11:50:12.775Z,7.09
2023-04-22T11:51:12.759Z,7.18
2023-04-22T11:52:12.810Z,7.07
2023-04-22T11:53:12.842Z,7.06
2023-04-22T11:54:12.851Z,7.09
2023-04-22T11:55:12.876Z,6.98
2023-04-22T11:56:12.911Z,7.00
2023-04-22T11:57:12.936Z,7.02
2023-04-22T11:58:12.966Z,6.87
2023-04-22T11:59:12.987Z,7.06
2023-04-22T12:00:13.048Z,7.13
2023-04-22T12:01:13.046Z,7.01
2023-04-22T12:02:13.153Z,7.08
2023-04-22T12:03:15.277Z,6.90
2023-04-22T12:04:13.301Z,7.05
2023-04-22T12:05:13.322Z,6.93
2023-04-22T12:06:13.286Z,7.03
2023-04-22T12:07:13.317Z,6.85
2023-04-22T12:08:13.332Z,7.01
2023-04-22T12:09:14.035Z,6.99
2023-04-22T12:10:13.387Z,7.00
2023-04-22T12:11:13.446Z,6.96
2023-04-22T12:12:13.432Z,7.04
2023-04-22T12:13:13.467Z,6.87
2023-04-22T12:14:13.483Z,6.68
2023-04-22T12:15:13.952Z,6.78
2023-04-22T12:16:13.568Z,6.75
2023-04-22T12:17:13.699Z,6.71
2023-04-22T12:18:13.602Z,6.81
2023-04-22T12:19:13.616Z,6.81
2023-04-22T12:20:13.658Z,6.71
2023-04-22T12:21:13.692Z,6.65
2023-04-22T12:22:13.705Z,6.83
2023-04-22T12:23:13.722Z,6.80
2023-04-22T12:24:13.758Z,6.67
2023-04-22T12:25:13.778Z,6.76
2023-04-22T12:26:13.794Z,6.81
2023-04-22T12:27:13.764Z,6.82
2023-04-22T12:28:13.734Z,6.79
2023-04-22T12:29:13.711Z,6.74
2023-04-22T12:30:13.681Z,6.78
2023-04-22T12:31:13.665Z,6.79
2023-04-22T12:32:13.613Z,6.83
2023-04-22T12:33:13.573Z,6.84
2023-04-22T12:34:13.546Z,6.86
2023-04-22T12:35:13.503Z,6.84
2023-04-22T12:36:13.484Z,6.95
2023-04-22T12:37:13.449Z,6.43
2023-04-22T12:38:13.414Z,6.31
2023-04-22T12:39:13.375Z,6.45
2023-04-22T12:40:13.375Z,6.72
2023-04-22T12:41:13.338Z,6.74
2023-04-22T12:42:13.289Z,6.65
2023-04-22T12:43:13.251Z,6.69
2023-04-22T12:44:13.237Z,6.57
2023-04-22T12:45:13.185Z,6.48
2023-04-22T12:46:13.220Z,6.49
2023-04-22T12:47:13.171Z,6.57
2023-04-22T12:48:13.164Z,6.60
2023-04-22T12:49:13.165Z,6.58
2023-04-22T12:50:13.184Z,6.70
2023-04-22T12:51:13.167Z,6.63
2023-04-22T12:52:13.162Z,6.71
2023-04-22T12:53:13.160Z,6.57
2023-04-22T12:54:13.183Z,6.63
2023-04-22T12:55:13.147Z,6.71
2023-04-22T12:56:13.154Z,6.60
2023-04-22T12:57:13.123Z,6.78
2023-04-22T12:58:13.116Z,6.58
2023-04-22T12:59:13.102Z,6.70
2023-04-22T13:00:13.099Z,6.61
2023-04-22T13:01:13.215Z,6.63